^^
Saratoga-Weather Station Historical Data
Daily Summary for March 29, 2020 Units:  Both    English   Metric
Daily Weekly Monthly Yearly Custom
  High: Low: Average:
Temperature: 40.3 °F /  4.6 °C 34.5 °F /  1.4 °C 37.2 °F /  2.9 °C
Dew Point: 37.6 °F /  3.1 °C 33.4 °F /  0.8 °C 35.8 °F /  2.1 °C
Humidity: 97% 90% 94%
Wind Speed: 10.1mph /  16.3km/h - 1.7mph /  2.7km/h
Wind Gust: 12mph /  19.3km/h - -
Wind- - West
Pressure: 29.4 in /  996.6 hPa 28.9 in /  977.0 hPa -
Precipitation: 0.19 in /  4.8 mm    
Historical Graphs
 
 
Tabular Data for March 29, 2020
Time Temperature Dew Point Pressure Wind Wind Speed Wind Gust Humidity Rainfall Rate (Hourly) solar
00:04 34.5 °F /  1.4 °C 33.4 °F /  0.8 °C 28.9in /  977.0hPa Calm   2mph /  3.2km/h 96% 0.02in /  0.5mm 0 W/m2
00:09 34.5 °F /  1.4 °C 33.4 °F /  0.8 °C 28.9in /  977.0hPa Calm     96% 0.02in /  0.5mm 0 W/m2
00:14 34.7 °F /  1.5 °C 34 °F /  1.1 °C 28.9in /  977.0hPa Calm   1mph /  1.6km/h 97% 0.02in /  0.5mm 0 W/m2
00:19 34.9 °F /  1.6 °C 34.2 °F /  1.2 °C 28.9in /  977.0hPa Calm     97% 0.02in /  0.5mm 0 W/m2
00:24 34.9 °F /  1.6 °C 34.2 °F /  1.2 °C 28.9in /  977.0hPa Calm     97% 0.02in /  0.5mm 0 W/m2
00:29 34.9 °F /  1.6 °C 34.2 °F /  1.2 °C 28.9in /  977.0hPa Calm     97% 0.02in /  0.5mm 0 W/m2
00:34 34.9 °F /  1.6 °C 34.2 °F /  1.2 °C 28.9in /  977.0hPa Calm     97% 0.01in /  0.2mm 0 W/m2
00:39 35.1 °F /  1.7 °C 34.3 °F /  1.3 °C 28.9in /  977.0hPa Calm   2mph /  3.2km/h 97% 0.01in /  0.2mm 0 W/m2
00:44 35.2 °F /  1.8 °C 34.5 °F /  1.4 °C 28.9in /  977.0hPa Calm     97% 0.01in /  0.2mm 0 W/m2
00:49 35.4 °F /  1.9 °C 34.7 °F /  1.5 °C 28.9in /  977.0hPa Calm   2mph /  3.2km/h 97% 0.01in /  0.2mm 0 W/m2
00:54 35.4 °F /  1.9 °C 34.7 °F /  1.5 °C 28.9in /  977.0hPa Calm   1mph /  1.6km/h 97% 0.02in /  0.5mm 0 W/m2
00:59 36 °F /  2.2 °C 35.2 °F /  1.8 °C 28.9in /  977.0hPa NW 2mph /  3.2km/h 4mph /  6.4km/h 97% 0.02in /  0.5mm 0 W/m2
01:04 36.1 °F /  2.3 °C 35.4 °F /  1.9 °C 28.9in /  977.0hPa WNW 6.9mph /  11.1km/h 7mph /  11.3km/h 97% 0.02in /  0.5mm 0 W/m2
01:09 36.1 °F /  2.3 °C 35.4 °F /  1.9 °C 28.9in /  977.3hPa NNW 0.9mph /  1.4km/h 3mph /  4.8km/h 97% 0.02in /  0.5mm 0 W/m2
01:14 36.1 °F /  2.3 °C 35.4 °F /  1.9 °C 28.9in /  977.3hPa North 7mph /  11.3km/h 7mph /  11.3km/h 97% 0.01in /  0.2mm 0 W/m2
01:19 36.1 °F /  2.3 °C 35.4 °F /  1.9 °C 28.9in /  977.3hPa WNW 2mph /  3.2km/h 4mph /  6.4km/h 97% 0.02in /  0.5mm 0 W/m2
01:24 36.1 °F /  2.3 °C 35.4 °F /  1.9 °C 28.9in /  977.3hPa NNE 0.9mph /  1.4km/h 1mph /  1.6km/h 97% 0.02in /  0.5mm 0 W/m2
01:29 36.1 °F /  2.3 °C 35.4 °F /  1.9 °C 28.9in /  977.3hPa NE 2mph /  3.2km/h 4mph /  6.4km/h 97% 0.02in /  0.5mm 0 W/m2
01:34 36.1 °F /  2.3 °C 35.1 °F /  1.7 °C 28.9in /  977.3hPa Calm   2mph /  3.2km/h 96% 0.02in /  0.5mm 0 W/m2
01:39 36.1 °F /  2.3 °C 35.1 °F /  1.7 °C 28.9in /  977.6hPa Calm   2mph /  3.2km/h 96% 0.02in /  0.5mm 0 W/m2
01:44 36.1 °F /  2.3 °C 35.1 °F /  1.7 °C 28.9in /  977.6hPa NW 0.9mph /  1.4km/h 8mph /  12.9km/h 96% 0.02in /  0.5mm 0 W/m2
01:49 36.1 °F /  2.3 °C 35.1 °F /  1.7 °C 28.9in /  977.6hPa WNW 4.9mph /  7.9km/h 5mph /  8km/h 96% 0.02in /  0.5mm 0 W/m2
01:54 36 °F /  2.2 °C 34.9 °F /  1.6 °C 28.9in /  977.6hPa NW 0.9mph /  1.4km/h 6mph /  9.7km/h 96% 0.01in /  0.2mm 0 W/m2
01:59 36 °F /  2.2 °C 34.9 °F /  1.6 °C 28.9in /  977.6hPa WSW 2mph /  3.2km/h 4mph /  6.4km/h 96% 0.01in /  0.2mm 0 W/m2
02:04 36 °F /  2.2 °C 34.7 °F /  1.5 °C 28.9in /  977.6hPa WSW 2mph /  3.2km/h 4mph /  6.4km/h 95% 0.01in /  0.2mm 0 W/m2
02:09 36 °F /  2.2 °C 34.7 °F /  1.5 °C 28.9in /  977.6hPa NW 2.9mph /  4.7km/h 4mph /  6.4km/h 95% 0.01in /  0.2mm 0 W/m2
02:14 36 °F /  2.2 °C 34.7 °F /  1.5 °C 28.9in /  978.0hPa WNW 2mph /  3.2km/h 4mph /  6.4km/h 95% 0.01in /  0.2mm 0 W/m2
02:19 35.8 °F /  2.1 °C 34.5 °F /  1.4 °C 28.9in /  978.0hPa Calm   3mph /  4.8km/h 95% 0in /  0.0mm 0 W/m2
02:24 35.8 °F /  2.1 °C 34.5 °F /  1.4 °C 28.9in /  978.0hPa WSW 0.9mph /  1.4km/h 2mph /  3.2km/h 95% 0in /  0.0mm 0 W/m2
02:29 35.8 °F /  2.1 °C 34.5 °F /  1.4 °C 28.9in /  978.3hPa Calm   1mph /  1.6km/h 95% 0in /  0.0mm 0 W/m2
02:34 35.8 °F /  2.1 °C 34.5 °F /  1.4 °C 28.9in /  978.3hPa West 0.9mph /  1.4km/h 4mph /  6.4km/h 95% 0in /  0.0mm 0 W/m2
02:39 35.8 °F /  2.1 °C 34.5 °F /  1.4 °C 28.9in /  978.7hPa Calm   3mph /  4.8km/h 95% 0.01in /  0.2mm 0 W/m2
02:44 35.6 °F /  2 °C 34.3 °F /  1.3 °C 28.9in /  978.7hPa West 2.9mph /  4.7km/h 7mph /  11.3km/h 95% 0.01in /  0.2mm 0 W/m2
02:49 35.6 °F /  2 °C 34.3 °F /  1.3 °C 28.9in /  978.7hPa WNW 4.9mph /  7.9km/h 7mph /  11.3km/h 95% 0.01in /  0.2mm 0 W/m2
02:54 35.6 °F /  2 °C 34.3 °F /  1.3 °C 28.9in /  978.7hPa WNW 0.9mph /  1.4km/h 3mph /  4.8km/h 95% 0.01in /  0.2mm 0 W/m2
02:59 35.4 °F /  1.9 °C 34.2 °F /  1.2 °C 28.9in /  979.0hPa West 4mph /  6.4km/h 7mph /  11.3km/h 95% 0.01in /  0.2mm 0 W/m2
03:04 35.4 °F /  1.9 °C 34.2 °F /  1.2 °C 28.9in /  979.0hPa WNW 0.9mph /  1.4km/h 9mph /  14.5km/h 95% 0.01in /  0.2mm 0 W/m2
03:09 35.4 °F /  1.9 °C 34.2 °F /  1.2 °C 28.9in /  979.3hPa NW 4mph /  6.4km/h 7mph /  11.3km/h 95% 0.01in /  0.2mm 0 W/m2
03:14 35.4 °F /  1.9 °C 34.2 °F /  1.2 °C 28.9in /  979.3hPa SW 2mph /  3.2km/h 9mph /  14.5km/h 95% 0.01in /  0.2mm 0 W/m2
03:19 35.4 °F /  1.9 °C 34.2 °F /  1.2 °C 28.9in /  979.3hPa WNW 2mph /  3.2km/h 9mph /  14.5km/h 95% 0.01in /  0.2mm 0 W/m2
03:24 35.4 °F /  1.9 °C 34.2 °F /  1.2 °C 28.9in /  979.7hPa NW 2.9mph /  4.7km/h 4mph /  6.4km/h 95% 0.01in /  0.2mm 0 W/m2
03:29 35.4 °F /  1.9 °C 34.2 °F /  1.2 °C 28.9in /  979.7hPa West 0.9mph /  1.4km/h 8mph /  12.9km/h 95% 0.01in /  0.2mm 0 W/m2
03:34 35.6 °F /  2 °C 34.3 °F /  1.3 °C 28.9in /  980.0hPa West 6mph /  9.7km/h 9mph /  14.5km/h 95% 0.01in /  0.2mm 0 W/m2
03:39 35.6 °F /  2 °C 34.3 °F /  1.3 °C 29in /  980.4hPa NW 6.9mph /  11.1km/h 8mph /  12.9km/h 95% 0in /  0.0mm 0 W/m2
03:44 35.6 °F /  2 °C 34.3 °F /  1.3 °C 29in /  980.4hPa NW 2.9mph /  4.7km/h 9mph /  14.5km/h 95% 0in /  0.0mm 0 W/m2
03:49 35.6 °F /  2 °C 34.3 °F /  1.3 °C 29in /  980.4hPa WNW 0.9mph /  1.4km/h 7mph /  11.3km/h 95% 0in /  0.0mm 0 W/m2
03:54 35.8 °F /  2.1 °C 34.5 °F /  1.4 °C 29in /  980.4hPa West 2mph /  3.2km/h 7mph /  11.3km/h 95% 0in /  0.0mm 0 W/m2
03:59 35.6 °F /  2 °C 34.3 °F /  1.3 °C 29in /  980.4hPa SW 0.9mph /  1.4km/h 8mph /  12.9km/h 95% 0in /  0.0mm 0 W/m2
04:04 35.6 °F /  2 °C 34.3 °F /  1.3 °C 29in /  980.7hPa West 6mph /  9.7km/h 9mph /  14.5km/h 95% 0in /  0.0mm 0 W/m2
04:09 35.6 °F /  2 °C 34.3 °F /  1.3 °C 29in /  980.7hPa West 0.9mph /  1.4km/h 7mph /  11.3km/h 95% 0in /  0.0mm 0 W/m2
04:14 35.8 °F /  2.1 °C 34.5 °F /  1.4 °C 29in /  981.0hPa West 2mph /  3.2km/h 3mph /  4.8km/h 95% 0in /  0.0mm 0 W/m2
04:19 35.8 °F /  2.1 °C 34.5 °F /  1.4 °C 29in /  981.0hPa WNW 0.9mph /  1.4km/h 6mph /  9.7km/h 95% 0in /  0.0mm 0 W/m2
04:24 35.8 °F /  2.1 °C 34.5 °F /  1.4 °C 29in /  981.0hPa NW 4mph /  6.4km/h 5mph /  8km/h 95% 0in /  0.0mm 0 W/m2
04:29 35.6 °F /  2 °C 34.3 °F /  1.3 °C 29in /  981.0hPa WNW 0.9mph /  1.4km/h 2mph /  3.2km/h 95% 0in /  0.0mm 0 W/m2
04:34 35.8 °F /  2.1 °C 34.5 °F /  1.4 °C 29in /  981.0hPa West 0.9mph /  1.4km/h 3mph /  4.8km/h 95% 0in /  0.0mm 0 W/m2
04:39 35.8 °F /  2.1 °C 34.5 °F /  1.4 °C 29in /  981.4hPa WNW 2mph /  3.2km/h 4mph /  6.4km/h 95% 0in /  0.0mm 0 W/m2
04:44 35.8 °F /  2.1 °C 34.5 °F /  1.4 °C 29in /  981.4hPa West 2.9mph /  4.7km/h 8mph /  12.9km/h 95% 0.01in /  0.2mm 0 W/m2
04:49 35.8 °F /  2.1 °C 34.5 °F /  1.4 °C 29in /  981.4hPa NW 2.9mph /  4.7km/h 4mph /  6.4km/h 95% 0.01in /  0.2mm 0 W/m2
04:54 35.8 °F /  2.1 °C 34.5 °F /  1.4 °C 29in /  981.7hPa NNW 0.9mph /  1.4km/h 5mph /  8km/h 95% 0.01in /  0.2mm 0 W/m2
04:59 35.8 °F /  2.1 °C 34.5 °F /  1.4 °C 29in /  982.0hPa WSW 10.1mph /  16.3km/h 10mph /  16.1km/h 95% 0.01in /  0.2mm 0 W/m2
05:04 36 °F /  2.2 °C 34.7 °F /  1.5 °C 29in /  982.0hPa NW 2mph /  3.2km/h 6mph /  9.7km/h 95% 0.01in /  0.2mm 0 W/m2
05:09 36 °F /  2.2 °C 34.7 °F /  1.5 °C 29in /  982.0hPa West 0.9mph /  1.4km/h 8mph /  12.9km/h 95% 0.01in /  0.2mm 0 W/m2
05:14 36 °F /  2.2 °C 34.7 °F /  1.5 °C 29in /  982.4hPa West 2.9mph /  4.7km/h 9mph /  14.5km/h 95% 0.01in /  0.2mm 0 W/m2
05:19 36.1 °F /  2.3 °C 34.9 °F /  1.6 °C 29in /  982.4hPa West 6.9mph /  11.1km/h 10mph /  16.1km/h 95% 0.01in /  0.2mm 0 W/m2
05:24 36.1 °F /  2.3 °C 34.9 °F /  1.6 °C 29in /  982.4hPa WSW 2.9mph /  4.7km/h 6mph /  9.7km/h 95% 0.01in /  0.2mm 0 W/m2
05:29 36.1 °F /  2.3 °C 34.9 °F /  1.6 °C 29in /  982.7hPa WNW 0.9mph /  1.4km/h 4mph /  6.4km/h 95% 0.01in /  0.2mm 0 W/m2
05:34 36.1 °F /  2.3 °C 34.9 °F /  1.6 °C 29in /  982.7hPa WNW 6.9mph /  11.1km/h 9mph /  14.5km/h 95% 0.01in /  0.2mm 0 W/m2
05:39 36.1 °F /  2.3 °C 34.9 °F /  1.6 °C 29in /  982.7hPa West 2.9mph /  4.7km/h 8mph /  12.9km/h 95% 0.01in /  0.2mm 0 W/m2
05:44 36.1 °F /  2.3 °C 34.9 °F /  1.6 °C 29in /  983.1hPa West 2.9mph /  4.7km/h 8mph /  12.9km/h 95% 0in /  0.0mm 0 W/m2
05:49 36 °F /  2.2 °C 34.7 °F /  1.5 °C 29in /  983.1hPa WSW 2.9mph /  4.7km/h 7mph /  11.3km/h 95% 0in /  0.0mm 0 W/m2
05:54 36 °F /  2.2 °C 34.7 °F /  1.5 °C 29in /  983.1hPa WNW 0.9mph /  1.4km/h 6mph /  9.7km/h 95% 0in /  0.0mm 0 W/m2
05:59 36 °F /  2.2 °C 34.7 °F /  1.5 °C 29in /  983.4hPa West 4mph /  6.4km/h 7mph /  11.3km/h 95% 0in /  0.0mm 0 W/m2
06:04 36 °F /  2.2 °C 34.7 °F /  1.5 °C 29in /  983.4hPa WSW 2.9mph /  4.7km/h 3mph /  4.8km/h 95% 0in /  0.0mm 0 W/m2
06:09 36 °F /  2.2 °C 34.7 °F /  1.5 °C 29.1in /  983.8hPa West 2mph /  3.2km/h 7mph /  11.3km/h 95% 0in /  0.0mm 0 W/m2
06:14 35.8 °F /  2.1 °C 34.5 °F /  1.4 °C 29.1in /  983.8hPa WSW 2mph /  3.2km/h 8mph /  12.9km/h 95% 0.01in /  0.2mm 0 W/m2
06:19 35.8 °F /  2.1 °C 34.5 °F /  1.4 °C 29.1in /  984.1hPa West 2.9mph /  4.7km/h 7mph /  11.3km/h 95% 0.01in /  0.2mm 0 W/m2
06:24 35.8 °F /  2.1 °C 34.5 °F /  1.4 °C 29.1in /  984.1hPa WNW 2mph /  3.2km/h 6mph /  9.7km/h 95% 0.01in /  0.2mm 0 W/m2
06:29 35.8 °F /  2.1 °C 34.5 °F /  1.4 °C 29.1in /  984.4hPa WNW 2.9mph /  4.7km/h 6mph /  9.7km/h 95% 0.02in /  0.5mm 0 W/m2
06:34 35.8 °F /  2.1 °C 34.5 °F /  1.4 °C 29.1in /  984.4hPa WNW 2.9mph /  4.7km/h 4mph /  6.4km/h 95% 0.02in /  0.5mm 0 W/m2
06:39 35.8 °F /  2.1 °C 34.5 °F /  1.4 °C 29.1in /  984.4hPa WNW 2mph /  3.2km/h 4mph /  6.4km/h 95% 0.02in /  0.5mm 0 W/m2
06:44 36 °F /  2.2 °C 34.7 °F /  1.5 °C 29.1in /  984.8hPa WNW 6mph /  9.7km/h 6mph /  9.7km/h 95% 0.02in /  0.5mm 0 W/m2
06:49 36 °F /  2.2 °C 34.7 °F /  1.5 °C 29.1in /  984.8hPa WNW 4.9mph /  7.9km/h 8mph /  12.9km/h 95% 0.02in /  0.5mm 0 W/m2
06:54 36 °F /  2.2 °C 34.7 °F /  1.5 °C 29.1in /  984.8hPa West 6mph /  9.7km/h 7mph /  11.3km/h 95% 0.02in /  0.5mm 0 W/m2
06:59 36.1 °F /  2.3 °C 34.9 °F /  1.6 °C 29.1in /  985.1hPa WNW 8.1mph /  13km/h 8mph /  12.9km/h 95% 0.02in /  0.5mm 0 W/m2
07:04 36.1 °F /  2.3 °C 34.9 °F /  1.6 °C 29.1in /  985.1hPa NNW 0.9mph /  1.4km/h 6mph /  9.7km/h 95% 0.02in /  0.5mm 0 W/m2
07:09 36.3 °F /  2.4 °C 35.1 °F /  1.7 °C 29.1in /  985.4hPa WNW 6.9mph /  11.1km/h 9mph /  14.5km/h 95% 0.02in /  0.5mm 0 W/m2
07:14 36.5 °F /  2.5 °C 35.2 °F /  1.8 °C 29.1in /  985.4hPa WNW 4mph /  6.4km/h 4mph /  6.4km/h 95% 0.02in /  0.5mm 0 W/m2
07:19 36.5 °F /  2.5 °C 35.2 °F /  1.8 °C 29.1in /  985.4hPa WNW 4mph /  6.4km/h 8mph /  12.9km/h 95% 0.02in /  0.5mm 0 W/m2
07:24 36.7 °F /  2.6 °C 35.4 °F /  1.9 °C 29.1in /  985.8hPa WSW 2.9mph /  4.7km/h 4mph /  6.4km/h 95% 0.02in /  0.5mm 0 W/m2
07:29 36.7 °F /  2.6 °C 35.4 °F /  1.9 °C 29.1in /  985.8hPa NW 10.1mph /  16.3km/h 10mph /  16.1km/h 95% 0.01in /  0.2mm 0 W/m2
07:34 36.9 °F /  2.7 °C 35.6 °F /  2 °C 29.1in /  986.1hPa NW 4mph /  6.4km/h 8mph /  12.9km/h 95% 0.01in /  0.2mm 0 W/m2
07:39 36.9 °F /  2.7 °C 35.6 °F /  2 °C 29.1in /  986.1hPa West 6mph /  9.7km/h 10mph /  16.1km/h 95% 0.01in /  0.2mm 0 W/m2
07:44 37 °F /  2.8 °C 35.4 °F /  1.9 °C 29.1in /  986.5hPa West 2.9mph /  4.7km/h 9mph /  14.5km/h 94% 0.01in /  0.2mm 0 W/m2
07:49 37 °F /  2.8 °C 35.4 °F /  1.9 °C 29.1in /  986.5hPa West 2mph /  3.2km/h 8mph /  12.9km/h 94% 0in /  0.0mm 0 W/m2
07:54 37 °F /  2.8 °C 35.8 °F /  2.1 °C 29.1in /  986.5hPa West 6mph /  9.7km/h 6mph /  9.7km/h 95% 0in /  0.0mm 0 W/m2
07:59 37 °F /  2.8 °C 35.8 °F /  2.1 °C 29.1in /  986.8hPa WNW 4mph /  6.4km/h 6mph /  9.7km/h 95% 0in /  0.0mm 0 W/m2
08:04 37 °F /  2.8 °C 35.4 °F /  1.9 °C 29.2in /  987.1hPa West 8.1mph /  13km/h 12mph /  19.3km/h 94% 0in /  0.0mm 0 W/m2
08:09 37 °F /  2.8 °C 35.8 °F /  2.1 °C 29.2in /  987.1hPa NW 2mph /  3.2km/h 9mph /  14.5km/h 95% 0in /  0.0mm 0 W/m2
08:14 37.2 °F /  2.9 °C 36 °F /  2.2 °C 29.2in /  987.1hPa West 2mph /  3.2km/h 12mph /  19.3km/h 95% 0in /  0.0mm 0 W/m2
08:19 37.2 °F /  2.9 °C 36 °F /  2.2 °C 29.2in /  987.1hPa West 4mph /  6.4km/h 4mph /  6.4km/h 95% 0in /  0.0mm 0 W/m2
08:24 37 °F /  2.8 °C 35.4 °F /  1.9 °C 29.2in /  987.5hPa WNW 2mph /  3.2km/h 6mph /  9.7km/h 94% 0in /  0.0mm 0 W/m2
08:29 37 °F /  2.8 °C 35.4 °F /  1.9 °C 29.2in /  987.5hPa WSW 4mph /  6.4km/h 7mph /  11.3km/h 94% 0in /  0.0mm 0 W/m2
08:34 37 °F /  2.8 °C 35.4 °F /  1.9 °C 29.2in /  987.8hPa WNW 4mph /  6.4km/h 9mph /  14.5km/h 94% 0in /  0.0mm 0 W/m2
08:39 37 °F /  2.8 °C 35.4 °F /  1.9 °C 29.2in /  987.8hPa West 2.9mph /  4.7km/h 7mph /  11.3km/h 94% 0in /  0.0mm 0 W/m2
08:44 37 °F /  2.8 °C 35.8 °F /  2.1 °C 29.2in /  988.1hPa NW 2.9mph /  4.7km/h 9mph /  14.5km/h 95% 0in /  0.0mm 0 W/m2
08:49 37 °F /  2.8 °C 35.4 °F /  1.9 °C 29.2in /  988.1hPa NW 0.9mph /  1.4km/h 7mph /  11.3km/h 94% 0in /  0.0mm 0 W/m2
08:54 37.2 °F /  2.9 °C 35.6 °F /  2 °C 29.2in /  988.1hPa Calm   4mph /  6.4km/h 94% 0in /  0.0mm 0 W/m2
09:00 37.2 °F /  2.9 °C 35.6 °F /  2 °C 29.2in /  988.5hPa Calm   2mph /  3.2km/h 94% 0in /  0.0mm 0 W/m2
09:05 37.2 °F /  2.9 °C 35.6 °F /  2 °C 29.2in /  988.5hPa SW 0.9mph /  1.4km/h 8mph /  12.9km/h 94% 0in /  0.0mm 0 W/m2
09:10 37.2 °F /  2.9 °C 35.6 °F /  2 °C 29.2in /  988.5hPa Calm   2mph /  3.2km/h 94% 0in /  0.0mm 7 W/m2
09:15 37.2 °F /  2.9 °C 35.6 °F /  2 °C 29.2in /  988.5hPa Calm   8mph /  12.9km/h 94% 0in /  0.0mm 14 W/m2
09:20 37.2 °F /  2.9 °C 35.6 °F /  2 °C 29.2in /  988.8hPa West 2mph /  3.2km/h 7mph /  11.3km/h 94% 0in /  0.0mm 12 W/m2
09:25 37.2 °F /  2.9 °C 35.6 °F /  2 °C 29.2in /  988.8hPa SW 2mph /  3.2km/h 3mph /  4.8km/h 94% 0in /  0.0mm 12 W/m2
09:30 37.2 °F /  2.9 °C 35.6 °F /  2 °C 29.2in /  988.8hPa SW 0.9mph /  1.4km/h 7mph /  11.3km/h 94% 0in /  0.0mm 14 W/m2
09:35 37 °F /  2.8 °C 35.4 °F /  1.9 °C 29.2in /  988.8hPa West 6mph /  9.7km/h 10mph /  16.1km/h 94% 0in /  0.0mm 19 W/m2
09:40 37 °F /  2.8 °C 35.4 °F /  1.9 °C 29.2in /  989.2hPa NNW 2mph /  3.2km/h 3mph /  4.8km/h 94% 0in /  0.0mm 25 W/m2
09:45 37 °F /  2.8 °C 35.4 °F /  1.9 °C 29.2in /  989.2hPa Calm   8mph /  12.9km/h 94% 0in /  0.0mm 26 W/m2
09:50 37 °F /  2.8 °C 35.8 °F /  2.1 °C 29.2in /  989.2hPa Calm   5mph /  8km/h 95% 0in /  0.0mm 30 W/m2
09:55 37.2 °F /  2.9 °C 36 °F /  2.2 °C 29.2in /  989.5hPa Calm   4mph /  6.4km/h 95% 0in /  0.0mm 28 W/m2
10:00 37.2 °F /  2.9 °C 36 °F /  2.2 °C 29.2in /  989.5hPa Calm   2mph /  3.2km/h 95% 0in /  0.0mm 32 W/m2
10:05 37.2 °F /  2.9 °C 35.6 °F /  2 °C 29.2in /  989.5hPa NW 2mph /  3.2km/h 2mph /  3.2km/h 94% 0in /  0.0mm 40 W/m2
10:10 37.4 °F /  3 °C 35.8 °F /  2.1 °C 29.2in /  989.5hPa WNW 2.9mph /  4.7km/h 9mph /  14.5km/h 94% 0in /  0.0mm 54 W/m2
10:15 37.6 °F /  3.1 °C 36 °F /  2.2 °C 29.2in /  989.5hPa Calm   3mph /  4.8km/h 94% 0in /  0.0mm 67 W/m2
10:20 37.6 °F /  3.1 °C 36 °F /  2.2 °C 29.2in /  989.8hPa WSW 0.9mph /  1.4km/h 9mph /  14.5km/h 94% 0in /  0.0mm 46 W/m2
10:25 37.8 °F /  3.2 °C 36.1 °F /  2.3 °C 29.2in /  989.8hPa WNW 0.9mph /  1.4km/h 3mph /  4.8km/h 94% 0in /  0.0mm 26 W/m2
10:30 37.8 °F /  3.2 °C 36.1 °F /  2.3 °C 29.2in /  989.8hPa North 2mph /  3.2km/h 7mph /  11.3km/h 94% 0in /  0.0mm 39 W/m2
10:35 37.8 °F /  3.2 °C 36.1 °F /  2.3 °C 29.2in /  990.2hPa WNW 6.9mph /  11.1km/h 7mph /  11.3km/h 94% 0in /  0.0mm 54 W/m2
10:40 37.8 °F /  3.2 °C 36.1 °F /  2.3 °C 29.2in /  990.2hPa NW 2.9mph /  4.7km/h 8mph /  12.9km/h 94% 0in /  0.0mm 127 W/m2
10:45 37.9 °F /  3.3 °C 36.3 °F /  2.4 °C 29.2in /  990.2hPa West 2.9mph /  4.7km/h 10mph /  16.1km/h 94% 0in /  0.0mm 107 W/m2
10:50 37.9 °F /  3.3 °C 36.3 °F /  2.4 °C 29.2in /  990.2hPa Calm   4mph /  6.4km/h 94% 0in /  0.0mm 91 W/m2
10:55 38.1 °F /  3.4 °C 36.3 °F /  2.4 °C 29.2in /  990.2hPa WNW 2.9mph /  4.7km/h 10mph /  16.1km/h 93% 0in /  0.0mm 67 W/m2
11:00 38.1 °F /  3.4 °C 36.3 °F /  2.4 °C 29.2in /  990.2hPa South 4mph /  6.4km/h 4mph /  6.4km/h 93% 0in /  0.0mm 111 W/m2
11:05 38.3 °F /  3.5 °C 36.5 °F /  2.5 °C 29.3in /  990.5hPa SSE 2mph /  3.2km/h 2mph /  3.2km/h 93% 0in /  0.0mm 148 W/m2
11:10 38.5 °F /  3.6 °C 36.7 °F /  2.6 °C 29.3in /  990.5hPa SSE 2.9mph /  4.7km/h 4mph /  6.4km/h 93% 0in /  0.0mm 107 W/m2
11:15 38.7 °F /  3.7 °C 36.9 °F /  2.7 °C 29.3in /  990.9hPa West 0.9mph /  1.4km/h 4mph /  6.4km/h 93% 0in /  0.0mm 81 W/m2
11:20 38.7 °F /  3.7 °C 36.5 °F /  2.5 °C 29.3in /  990.9hPa WNW 4mph /  6.4km/h 4mph /  6.4km/h 92% 0in /  0.0mm 90 W/m2
11:25 38.7 °F /  3.7 °C 36.5 °F /  2.5 °C 29.3in /  990.9hPa SE 2mph /  3.2km/h 5mph /  8km/h 92% 0in /  0.0mm 107 W/m2
11:30 38.7 °F /  3.7 °C 36.5 °F /  2.5 °C 29.3in /  990.9hPa ENE 2.9mph /  4.7km/h 3mph /  4.8km/h 92% 0in /  0.0mm 127 W/m2
11:35 38.8 °F /  3.8 °C 36.7 °F /  2.6 °C 29.3in /  991.2hPa WNW 0.9mph /  1.4km/h 12mph /  19.3km/h 92% 0in /  0.0mm 151 W/m2
11:40 38.8 °F /  3.8 °C 36.5 °F /  2.5 °C 29.3in /  991.2hPa NW 4mph /  6.4km/h 11mph /  17.7km/h 91% 0in /  0.0mm 120 W/m2
11:45 38.8 °F /  3.8 °C 36.5 °F /  2.5 °C 29.3in /  990.9hPa NNE 2.9mph /  4.7km/h 12mph /  19.3km/h 91% 0in /  0.0mm 130 W/m2
11:50 38.8 °F /  3.8 °C 36.5 °F /  2.5 °C 29.3in /  990.9hPa Calm   6mph /  9.7km/h 91% 0in /  0.0mm 84 W/m2
11:55 38.8 °F /  3.8 °C 36.5 °F /  2.5 °C 29.3in /  991.2hPa NW 4.9mph /  7.9km/h 8mph /  12.9km/h 91% 0in /  0.0mm 67 W/m2
12:00 38.7 °F /  3.7 °C 36 °F /  2.2 °C 29.3in /  991.2hPa NNW 2.9mph /  4.7km/h 3mph /  4.8km/h 90% 0in /  0.0mm 113 W/m2
12:05 38.7 °F /  3.7 °C 36 °F /  2.2 °C 29.3in /  991.2hPa WSW 2.9mph /  4.7km/h 11mph /  17.7km/h 90% 0in /  0.0mm 118 W/m2
12:10 38.7 °F /  3.7 °C 36 °F /  2.2 °C 29.3in /  991.2hPa SW 2.9mph /  4.7km/h 3mph /  4.8km/h 90% 0in /  0.0mm 120 W/m2
12:15 38.7 °F /  3.7 °C 36.3 °F /  2.4 °C 29.3in /  991.2hPa NW 4.9mph /  7.9km/h 11mph /  17.7km/h 91% 0in /  0.0mm 77 W/m2
12:20 38.7 °F /  3.7 °C 36.3 °F /  2.4 °C 29.3in /  991.5hPa West 2mph /  3.2km/h 7mph /  11.3km/h 91% 0in /  0.0mm 56 W/m2
12:25 38.7 °F /  3.7 °C 36.3 °F /  2.4 °C 29.3in /  991.2hPa West 0.9mph /  1.4km/h 6mph /  9.7km/h 91% 0in /  0.0mm 79 W/m2
12:30 38.7 °F /  3.7 °C 36.3 °F /  2.4 °C 29.3in /  991.2hPa ESE 0.9mph /  1.4km/h 4mph /  6.4km/h 91% 0in /  0.0mm 69 W/m2
12:35 38.8 °F /  3.8 °C 36.5 °F /  2.5 °C 29.3in /  991.2hPa SW 9mph /  14.5km/h 9mph /  14.5km/h 91% 0in /  0.0mm 60 W/m2
12:40 38.8 °F /  3.8 °C 36.5 °F /  2.5 °C 29.3in /  991.2hPa Calm   5mph /  8km/h 91% 0in /  0.0mm 54 W/m2
12:45 38.8 °F /  3.8 °C 36.5 °F /  2.5 °C 29.3in /  991.2hPa NNW 2.9mph /  4.7km/h 7mph /  11.3km/h 91% 0in /  0.0mm 67 W/m2
12:50 39 °F /  3.9 °C 36.7 °F /  2.6 °C 29.3in /  991.2hPa West 4mph /  6.4km/h 4mph /  6.4km/h 91% 0in /  0.0mm 98 W/m2
12:55 39 °F /  3.9 °C 36.9 °F /  2.7 °C 29.3in /  991.2hPa NW 2mph /  3.2km/h 2mph /  3.2km/h 92% 0in /  0.0mm 116 W/m2
13:00 39.2 °F /  4 °C 37 °F /  2.8 °C 29.3in /  991.2hPa WNW 2.9mph /  4.7km/h 10mph /  16.1km/h 92% 0in /  0.0mm 70 W/m2
13:05 39.4 °F /  4.1 °C 37.2 °F /  2.9 °C 29.3in /  991.2hPa West 2mph /  3.2km/h 4mph /  6.4km/h 92% 0in /  0.0mm 72 W/m2
13:10 39.4 °F /  4.1 °C 37.2 °F /  2.9 °C 29.3in /  991.2hPa WNW 2mph /  3.2km/h 10mph /  16.1km/h 92% 0in /  0.0mm 60 W/m2
13:15 39.4 °F /  4.1 °C 37.2 °F /  2.9 °C 29.3in /  991.2hPa NW 2mph /  3.2km/h 4mph /  6.4km/h 92% 0in /  0.0mm 33 W/m2
13:20 39.6 °F /  4.2 °C 37.4 °F /  3 °C 29.3in /  991.5hPa WNW 2mph /  3.2km/h 4mph /  6.4km/h 92% 0in /  0.0mm 40 W/m2
13:25 39.6 °F /  4.2 °C 37.2 °F /  2.9 °C 29.3in /  991.5hPa NW 2mph /  3.2km/h 6mph /  9.7km/h 91% 0in /  0.0mm 56 W/m2
13:30 39.6 °F /  4.2 °C 37.2 °F /  2.9 °C 29.3in /  991.5hPa NW 0.9mph /  1.4km/h 4mph /  6.4km/h 91% 0in /  0.0mm 33 W/m2
13:35 39.6 °F /  4.2 °C 37.2 °F /  2.9 °C 29.3in /  991.5hPa North 0.9mph /  1.4km/h 5mph /  8km/h 91% 0in /  0.0mm 39 W/m2
13:40 39.7 °F /  4.3 °C 37.4 °F /  3 °C 29.3in /  991.5hPa East 2mph /  3.2km/h 3mph /  4.8km/h 91% 0in /  0.0mm 46 W/m2
13:45 39.7 °F /  4.3 °C 37.4 °F /  3 °C 29.3in /  991.5hPa ESE 0.9mph /  1.4km/h 7mph /  11.3km/h 91% 0in /  0.0mm 49 W/m2
13:50 39.9 °F /  4.4 °C 37.6 °F /  3.1 °C 29.3in /  991.5hPa ENE 2mph /  3.2km/h 3mph /  4.8km/h 91% 0in /  0.0mm 86 W/m2
13:55 39.9 °F /  4.4 °C 37.6 °F /  3.1 °C 29.3in /  991.5hPa NW 2mph /  3.2km/h 6mph /  9.7km/h 91% 0in /  0.0mm 72 W/m2
14:05 40.3 °F /  4.6 °C 37.6 °F /  3.1 °C 29.3in /  991.5hPa NW 0.9mph /  1.4km/h 2mph /  3.2km/h 90% 0in /  0.0mm 65 W/m2
14:11 40.3 °F /  4.6 °C 37.6 °F /  3.1 °C 29.3in /  991.5hPa SW 2.9mph /  4.7km/h 6mph /  9.7km/h 90% 0in /  0.0mm 46 W/m2
14:16 40.3 °F /  4.6 °C 37.6 °F /  3.1 °C 29.3in /  991.9hPa NNW 2mph /  3.2km/h 4mph /  6.4km/h 90% 0in /  0.0mm 49 W/m2
14:21 40.3 °F /  4.6 °C 37.6 °F /  3.1 °C 29.3in /  991.9hPa Calm   6mph /  9.7km/h 90% 0in /  0.0mm 39 W/m2
14:26 40.3 °F /  4.6 °C 37.6 °F /  3.1 °C 29.3in /  991.9hPa WNW 0.9mph /  1.4km/h 6mph /  9.7km/h 90% 0in /  0.0mm 49 W/m2
14:31 40.3 °F /  4.6 °C 37.6 °F /  3.1 °C 29.3in /  991.9hPa WSW 0.9mph /  1.4km/h 3mph /  4.8km/h 90% 0in /  0.0mm 32 W/m2
14:36 40.3 °F /  4.6 °C 37.6 °F /  3.1 °C 29.3in /  992.2hPa WNW 0.9mph /  1.4km/h 4mph /  6.4km/h 90% 0in /  0.0mm 54 W/m2
14:41 40.1 °F /  4.5 °C 37.4 °F /  3 °C 29.3in /  992.2hPa West 6mph /  9.7km/h 9mph /  14.5km/h 90% 0in /  0.0mm 74 W/m2
14:46 39.9 °F /  4.4 °C 37.2 °F /  2.9 °C 29.3in /  992.2hPa WNW 4.9mph /  7.9km/h 6mph /  9.7km/h 90% 0in /  0.0mm 74 W/m2
14:51 39.9 °F /  4.4 °C 37.2 °F /  2.9 °C 29.3in /  992.2hPa Calm   9mph /  14.5km/h 90% 0in /  0.0mm 79 W/m2
14:56 39.9 °F /  4.4 °C 37.2 °F /  2.9 °C 29.3in /  992.2hPa West 2mph /  3.2km/h 3mph /  4.8km/h 90% 0in /  0.0mm 74 W/m2
15:01 39.9 °F /  4.4 °C 37.2 °F /  2.9 °C 29.3in /  992.2hPa West 0.9mph /  1.4km/h 4mph /  6.4km/h 90% 0in /  0.0mm 69 W/m2
15:06 39.7 °F /  4.3 °C 37 °F /  2.8 °C 29.3in /  992.2hPa NNW 0.9mph /  1.4km/h 1mph /  1.6km/h 90% 0in /  0.0mm 63 W/m2
15:11 39.7 °F /  4.3 °C 37 °F /  2.8 °C 29.3in /  992.5hPa ENE 0.9mph /  1.4km/h 3mph /  4.8km/h 90% 0in /  0.0mm 56 W/m2
15:16 39.7 °F /  4.3 °C 37 °F /  2.8 °C 29.3in /  992.5hPa Calm   4mph /  6.4km/h 90% 0in /  0.0mm 39 W/m2
15:21 39.7 °F /  4.3 °C 37 °F /  2.8 °C 29.3in /  992.5hPa North 0.9mph /  1.4km/h 2mph /  3.2km/h 90% 0in /  0.0mm 32 W/m2
15:26 39.7 °F /  4.3 °C 37 °F /  2.8 °C 29.3in /  992.5hPa NW 0.9mph /  1.4km/h 3mph /  4.8km/h 90% 0in /  0.0mm 33 W/m2
15:31 39.7 °F /  4.3 °C 37 °F /  2.8 °C 29.3in /  992.5hPa NW 0.9mph /  1.4km/h 1mph /  1.6km/h 90% 0in /  0.0mm 42 W/m2
15:36 39.7 °F /  4.3 °C 37 °F /  2.8 °C 29.3in /  992.5hPa West 0.9mph /  1.4km/h 2mph /  3.2km/h 90% 0in /  0.0mm 26 W/m2
15:41 39.7 °F /  4.3 °C 37 °F /  2.8 °C 29.3in /  992.9hPa WNW 0.9mph /  1.4km/h 2mph /  3.2km/h 90% 0in /  0.0mm 26 W/m2
15:46 39.7 °F /  4.3 °C 37 °F /  2.8 °C 29.3in /  992.9hPa Calm   2mph /  3.2km/h 90% 0in /  0.0mm 26 W/m2
15:51 39.7 °F /  4.3 °C 37 °F /  2.8 °C 29.3in /  993.2hPa Calm   2mph /  3.2km/h 90% 0in /  0.0mm 19 W/m2
15:56 39.7 °F /  4.3 °C 37 °F /  2.8 °C 29.3in /  993.2hPa North 0.9mph /  1.4km/h 2mph /  3.2km/h 90% 0in /  0.0mm 21 W/m2
16:01 39.7 °F /  4.3 °C 37 °F /  2.8 °C 29.3in /  993.2hPa NW 2mph /  3.2km/h 2mph /  3.2km/h 90% 0in /  0.0mm 21 W/m2
16:06 39.7 °F /  4.3 °C 37 °F /  2.8 °C 29.3in /  993.2hPa ENE 0.9mph /  1.4km/h 4mph /  6.4km/h 90% 0in /  0.0mm 18 W/m2
16:11 39.7 °F /  4.3 °C 37 °F /  2.8 °C 29.3in /  993.2hPa North 2mph /  3.2km/h 2mph /  3.2km/h 90% 0in /  0.0mm 12 W/m2
16:16 39.7 °F /  4.3 °C 37 °F /  2.8 °C 29.3in /  993.2hPa NW 0.9mph /  1.4km/h 4mph /  6.4km/h 90% 0in /  0.0mm 11 W/m2
16:21 39.6 °F /  4.2 °C 36.9 °F /  2.7 °C 29.3in /  993.2hPa NE 0.9mph /  1.4km/h 3mph /  4.8km/h 90% 0in /  0.0mm 7 W/m2
16:26 39.6 °F /  4.2 °C 36.9 °F /  2.7 °C 29.3in /  993.6hPa Calm   3mph /  4.8km/h 90% 0in /  0.0mm 5 W/m2
16:31 39.6 °F /  4.2 °C 36.9 °F /  2.7 °C 29.3in /  993.6hPa Calm   2mph /  3.2km/h 90% 0in /  0.0mm 0 W/m2
16:36 39.6 °F /  4.2 °C 36.9 °F /  2.7 °C 29.3in /  993.6hPa Calm   1mph /  1.6km/h 90% 0in /  0.0mm 0 W/m2
16:41 39.6 °F /  4.2 °C 36.9 °F /  2.7 °C 29.3in /  993.6hPa Calm   3mph /  4.8km/h 90% 0in /  0.0mm 0 W/m2
16:46 39.6 °F /  4.2 °C 36.9 °F /  2.7 °C 29.3in /  993.6hPa Calm   1mph /  1.6km/h 90% 0in /  0.0mm 0 W/m2
16:51 39.4 °F /  4.1 °C 37 °F /  2.8 °C 29.3in /  993.6hPa SW 0.9mph /  1.4km/h 2mph /  3.2km/h 91% 0in /  0.0mm 0 W/m2
16:56 39.4 °F /  4.1 °C 37 °F /  2.8 °C 29.3in /  993.6hPa Calm   1mph /  1.6km/h 91% 0.01in /  0.2mm 0 W/m2
17:02 39.4 °F /  4.1 °C 37 °F /  2.8 °C 29.3in /  993.6hPa SW 2mph /  3.2km/h 2mph /  3.2km/h 91% 0.02in /  0.5mm 0 W/m2
17:07 39.2 °F /  4 °C 37 °F /  2.8 °C 29.3in /  993.6hPa SW 0.9mph /  1.4km/h 1mph /  1.6km/h 92% 0.02in /  0.5mm 0 W/m2
17:12 39 °F /  3.9 °C 36.9 °F /  2.7 °C 29.4in /  993.9hPa West 2mph /  3.2km/h 3mph /  4.8km/h 92% 0.02in /  0.5mm 0 W/m2
17:17 38.8 °F /  3.8 °C 36.7 °F /  2.6 °C 29.4in /  993.9hPa NNW 0.9mph /  1.4km/h 2mph /  3.2km/h 92% 0.02in /  0.5mm 0 W/m2
17:22 38.7 °F /  3.7 °C 36.9 °F /  2.7 °C 29.4in /  993.9hPa NW 0.9mph /  1.4km/h 3mph /  4.8km/h 93% 0.02in /  0.5mm 0 W/m2
17:27 38.5 °F /  3.6 °C 36.7 °F /  2.6 °C 29.4in /  993.9hPa NW 2mph /  3.2km/h 3mph /  4.8km/h 93% 0.02in /  0.5mm 0 W/m2
17:32 38.1 °F /  3.4 °C 36.3 °F /  2.4 °C 29.4in /  994.2hPa West 2.9mph /  4.7km/h 9mph /  14.5km/h 93% 0.04in /  1.0mm 0 W/m2
17:37 37.2 °F /  2.9 °C 35.1 °F /  1.7 °C 29.4in /  994.2hPa West 0.9mph /  1.4km/h 3mph /  4.8km/h 92% 0.05in /  1.3mm 0 W/m2
17:42 36.9 °F /  2.7 °C 35.1 °F /  1.7 °C 29.4in /  994.2hPa West 2.9mph /  4.7km/h 8mph /  12.9km/h 93% 0.06in /  1.5mm 0 W/m2
17:47 36.7 °F /  2.6 °C 34.9 °F /  1.6 °C 29.4in /  994.2hPa West 0.9mph /  1.4km/h 2mph /  3.2km/h 93% 0.07in /  1.8mm 0 W/m2
17:52 36.7 °F /  2.6 °C 35.1 °F /  1.7 °C 29.4in /  994.2hPa Calm   2mph /  3.2km/h 94% 0.08in /  2.0mm 0 W/m2
17:57 36.5 °F /  2.5 °C 34.9 °F /  1.6 °C 29.4in /  994.2hPa WSW 0.9mph /  1.4km/h 2mph /  3.2km/h 94% 0.07in /  1.8mm 0 W/m2
18:02 36.5 °F /  2.5 °C 34.9 °F /  1.6 °C 29.4in /  994.2hPa Calm   1mph /  1.6km/h 94% 0.06in /  1.5mm 0 W/m2
18:07 36.5 °F /  2.5 °C 34.9 °F /  1.6 °C 29.4in /  994.2hPa Calm   1mph /  1.6km/h 94% 0.06in /  1.5mm 0 W/m2
18:12 36.7 °F /  2.6 °C 35.1 °F /  1.7 °C 29.4in /  994.2hPa Calm   1mph /  1.6km/h 94% 0.06in /  1.5mm 0 W/m2
18:17 36.7 °F /  2.6 °C 35.1 °F /  1.7 °C 29.4in /  994.2hPa Calm     94% 0.06in /  1.5mm 0 W/m2
18:22 36.7 °F /  2.6 °C 35.1 °F /  1.7 °C 29.4in /  994.2hPa Calm   1mph /  1.6km/h 94% 0.06in /  1.5mm 0 W/m2
18:27 36.7 °F /  2.6 °C 35.4 °F /  1.9 °C 29.4in /  994.2hPa Calm   1mph /  1.6km/h 95% 0.06in /  1.5mm 0 W/m2
18:32 36.7 °F /  2.6 °C 35.4 °F /  1.9 °C 29.4in /  994.2hPa Calm     95% 0.04in /  1.0mm 0 W/m2
18:37 36.9 °F /  2.7 °C 35.6 °F /  2 °C 29.4in /  994.6hPa Calm   1mph /  1.6km/h 95% 0.02in /  0.5mm 0 W/m2
18:42 36.9 °F /  2.7 °C 35.6 °F /  2 °C 29.4in /  994.6hPa South 0.9mph /  1.4km/h 1mph /  1.6km/h 95% 0.02in /  0.5mm 0 W/m2
18:47 36.9 °F /  2.7 °C 35.6 °F /  2 °C 29.4in /  994.6hPa Calm     95% 0.01in /  0.2mm 0 W/m2
18:52 37 °F /  2.8 °C 35.8 °F /  2.1 °C 29.4in /  994.6hPa Calm     95% 0in /  0.0mm 0 W/m2
18:57 37 °F /  2.8 °C 35.8 °F /  2.1 °C 29.4in /  994.6hPa Calm     95% 0in /  0.0mm 0 W/m2
19:02 37 °F /  2.8 °C 35.8 °F /  2.1 °C 29.4in /  994.6hPa Calm     95% 0in /  0.0mm 0 W/m2
19:07 37 °F /  2.8 °C 35.8 °F /  2.1 °C 29.4in /  994.9hPa Calm     95% 0in /  0.0mm 0 W/m2
19:12 36.9 °F /  2.7 °C 35.6 °F /  2 °C 29.4in /  994.9hPa Calm     95% 0in /  0.0mm 0 W/m2
19:17 36.9 °F /  2.7 °C 35.6 °F /  2 °C 29.4in /  994.9hPa Calm     95% 0in /  0.0mm 0 W/m2
19:22 36.9 °F /  2.7 °C 35.6 °F /  2 °C 29.4in /  994.9hPa Calm     95% 0in /  0.0mm 0 W/m2
19:27 36.9 °F /  2.7 °C 35.6 °F /  2 °C 29.4in /  994.9hPa Calm     95% 0in /  0.0mm 0 W/m2
19:32 37 °F /  2.8 °C 35.8 °F /  2.1 °C 29.4in /  995.3hPa Calm     95% 0in /  0.0mm 0 W/m2
19:37 37 °F /  2.8 °C 35.8 °F /  2.1 °C 29.4in /  995.3hPa Calm     95% 0in /  0.0mm 0 W/m2
19:42 37 °F /  2.8 °C 36 °F /  2.2 °C 29.4in /  995.3hPa Calm     96% 0in /  0.0mm 0 W/m2
19:47 37 °F /  2.8 °C 36 °F /  2.2 °C 29.4in /  995.3hPa Calm     96% 0in /  0.0mm 0 W/m2
19:52 37 °F /  2.8 °C 36 °F /  2.2 °C 29.4in /  995.3hPa Calm     96% 0in /  0.0mm 0 W/m2
19:57 37 °F /  2.8 °C 36 °F /  2.2 °C 29.4in /  995.3hPa Calm     96% 0in /  0.0mm 0 W/m2
20:02 37 °F /  2.8 °C 36 °F /  2.2 °C 29.4in /  995.3hPa Calm     96% 0in /  0.0mm 0 W/m2
20:07 37 °F /  2.8 °C 36 °F /  2.2 °C 29.4in /  995.3hPa Calm     96% 0in /  0.0mm 0 W/m2
20:12 37 °F /  2.8 °C 36 °F /  2.2 °C 29.4in /  995.3hPa Calm     96% 0in /  0.0mm 0 W/m2
20:17 37 °F /  2.8 °C 36 °F /  2.2 °C 29.4in /  995.6hPa Calm     96% 0in /  0.0mm 0 W/m2
20:22 37 °F /  2.8 °C 36 °F /  2.2 °C 29.4in /  995.6hPa Calm     96% 0in /  0.0mm 0 W/m2
20:27 37 °F /  2.8 °C 36 °F /  2.2 °C 29.4in /  995.6hPa South 0.9mph /  1.4km/h 1mph /  1.6km/h 96% 0in /  0.0mm 0 W/m2
20:32 37 °F /  2.8 °C 36 °F /  2.2 °C 29.4in /  995.3hPa Calm   2mph /  3.2km/h 96% 0in /  0.0mm 0 W/m2
20:37 37 °F /  2.8 °C 36 °F /  2.2 °C 29.4in /  995.6hPa Calm   1mph /  1.6km/h 96% 0in /  0.0mm 0 W/m2
20:42 36.9 °F /  2.7 °C 35.8 °F /  2.1 °C 29.4in /  995.6hPa NW 0.9mph /  1.4km/h 2mph /  3.2km/h 96% 0in /  0.0mm 0 W/m2
20:47 36.9 °F /  2.7 °C 35.8 °F /  2.1 °C 29.4in /  995.6hPa Calm     96% 0in /  0.0mm 0 W/m2
20:52 36.9 °F /  2.7 °C 35.8 °F /  2.1 °C 29.4in /  995.6hPa Calm   1mph /  1.6km/h 96% 0in /  0.0mm 0 W/m2
20:57 36.9 °F /  2.7 °C 35.8 °F /  2.1 °C 29.4in /  995.6hPa Calm     96% 0in /  0.0mm 0 W/m2
21:02 36.9 °F /  2.7 °C 35.8 °F /  2.1 °C 29.4in /  995.6hPa Calm     96% 0in /  0.0mm 0 W/m2
21:07 36.9 °F /  2.7 °C 35.8 °F /  2.1 °C 29.4in /  995.6hPa Calm     96% 0in /  0.0mm 0 W/m2
21:12 36.7 °F /  2.6 °C 35.6 °F /  2 °C 29.4in /  995.6hPa Calm     96% 0in /  0.0mm 0 W/m2
21:17 36.7 °F /  2.6 °C 35.6 °F /  2 °C 29.4in /  995.9hPa Calm   1mph /  1.6km/h 96% 0in /  0.0mm 0 W/m2
21:22 36.7 °F /  2.6 °C 35.6 °F /  2 °C 29.4in /  995.6hPa Calm     96% 0in /  0.0mm 0 W/m2
21:27 36.7 °F /  2.6 °C 35.6 °F /  2 °C 29.4in /  995.9hPa Calm     96% 0in /  0.0mm 0 W/m2
21:32 36.7 °F /  2.6 °C 35.6 °F /  2 °C 29.4in /  995.9hPa NW 0.9mph /  1.4km/h 1mph /  1.6km/h 96% 0in /  0.0mm 0 W/m2
21:37 36.7 °F /  2.6 °C 35.6 °F /  2 °C 29.4in /  995.9hPa Calm     96% 0in /  0.0mm 0 W/m2
21:42 36.7 °F /  2.6 °C 35.6 °F /  2 °C 29.4in /  995.9hPa Calm   1mph /  1.6km/h 96% 0in /  0.0mm 0 W/m2
21:47 36.9 °F /  2.7 °C 35.8 °F /  2.1 °C 29.4in /  995.9hPa Calm   1mph /  1.6km/h 96% 0in /  0.0mm 0 W/m2
21:52 36.9 °F /  2.7 °C 35.8 °F /  2.1 °C 29.4in /  995.9hPa NW 0.9mph /  1.4km/h 1mph /  1.6km/h 96% 0in /  0.0mm 0 W/m2
21:58 36.9 °F /  2.7 °C 36.1 °F /  2.3 °C 29.4in /  995.9hPa Calm     97% 0in /  0.0mm 0 W/m2
22:03 37 °F /  2.8 °C 36.3 °F /  2.4 °C 29.4in /  995.9hPa Calm   1mph /  1.6km/h 97% 0in /  0.0mm 0 W/m2
22:08 37 °F /  2.8 °C 36.3 °F /  2.4 °C 29.4in /  995.9hPa Calm     97% 0in /  0.0mm 0 W/m2
22:13 37 °F /  2.8 °C 36.3 °F /  2.4 °C 29.4in /  995.9hPa Calm   1mph /  1.6km/h 97% 0in /  0.0mm 0 W/m2
22:18 37 °F /  2.8 °C 36.3 °F /  2.4 °C 29.4in /  995.9hPa NW 2mph /  3.2km/h 2mph /  3.2km/h 97% 0in /  0.0mm 0 W/m2
22:23 37 °F /  2.8 °C 36.3 °F /  2.4 °C 29.4in /  995.9hPa Calm     97% 0in /  0.0mm 0 W/m2
22:28 37 °F /  2.8 °C 36.3 °F /  2.4 °C 29.4in /  995.9hPa Calm   1mph /  1.6km/h 97% 0in /  0.0mm 0 W/m2
22:33 37 °F /  2.8 °C 36.3 °F /  2.4 °C 29.4in /  995.9hPa Calm     97% 0in /  0.0mm 0 W/m2
22:38 37 °F /  2.8 °C 36.3 °F /  2.4 °C 29.4in /  995.9hPa Calm   1mph /  1.6km/h 97% 0.01in /  0.2mm 0 W/m2
22:43 37 °F /  2.8 °C 36.3 °F /  2.4 °C 29.4in /  996.3hPa Calm   1mph /  1.6km/h 97% 0.01in /  0.2mm 0 W/m2
22:48 37.2 °F /  2.9 °C 36.5 °F /  2.5 °C 29.4in /  996.3hPa Calm     97% 0.01in /  0.2mm 0 W/m2
22:53 37.2 °F /  2.9 °C 36.5 °F /  2.5 °C 29.4in /  996.3hPa NW 2mph /  3.2km/h 2mph /  3.2km/h 97% 0.01in /  0.2mm 0 W/m2
22:58 37.2 °F /  2.9 °C 36.5 °F /  2.5 °C 29.4in /  996.3hPa NNE 0.9mph /  1.4km/h 1mph /  1.6km/h 97% 0.01in /  0.2mm 0 W/m2
23:03 37.2 °F /  2.9 °C 36.5 °F /  2.5 °C 29.4in /  996.3hPa NE 0.9mph /  1.4km/h 2mph /  3.2km/h 97% 0.02in /  0.5mm 0 W/m2
23:08 37.4 °F /  3 °C 36.7 °F /  2.6 °C 29.4in /  996.3hPa Calm   2mph /  3.2km/h 97% 0.02in /  0.5mm 0 W/m2
23:13 37.6 °F /  3.1 °C 36.9 °F /  2.7 °C 29.4in /  996.3hPa Calm   1mph /  1.6km/h 97% 0.02in /  0.5mm 0 W/m2
23:18 37.8 °F /  3.2 °C 37 °F /  2.8 °C 29.4in /  996.3hPa NE 2mph /  3.2km/h 3mph /  4.8km/h 97% 0.02in /  0.5mm 0 W/m2
23:23 37.9 °F /  3.3 °C 37.2 °F /  2.9 °C 29.4in /  996.3hPa Calm   2mph /  3.2km/h 97% 0.02in /  0.5mm 0 W/m2
23:28 37.9 °F /  3.3 °C 37.2 °F /  2.9 °C 29.4in /  996.6hPa Calm   2mph /  3.2km/h 97% 0.02in /  0.5mm 0 W/m2
23:33 37.9 °F /  3.3 °C 37.2 °F /  2.9 °C 29.4in /  996.3hPa Calm     97% 0.03in /  0.8mm 0 W/m2
23:38 38.1 °F /  3.4 °C 37.4 °F /  3 °C 29.4in /  996.3hPa Calm   1mph /  1.6km/h 97% 0.02in /  0.5mm 0 W/m2
23:43 38.1 °F /  3.4 °C 37.4 °F /  3 °C 29.4in /  996.6hPa Calm   1mph /  1.6km/h 97% 0.02in /  0.5mm 0 W/m2
23:48 38.1 °F /  3.4 °C 37.4 °F /  3 °C 29.4in /  996.6hPa NE 0.9mph /  1.4km/h 2mph /  3.2km/h 97% 0.03in /  0.8mm 0 W/m2
23:53 38.1 °F /  3.4 °C 37.4 °F /  3 °C 29.4in /  996.6hPa North 2.9mph /  4.7km/h 3mph /  4.8km/h 97% 0.03in /  0.8mm 0 W/m2
23:58 38.1 °F /  3.4 °C 37.4 °F /  3 °C 29.4in /  996.6hPa Calm   2mph /  3.2km/h 97% 0.04in /  1.0mm 0 W/m2
Juneau County Weather
Compliments of Weather Underground - 4 mb